^^
Saratoga-Weather Station Historical Data
Daily Summary for November 9, 2020 Units:  Metric    English   Both
Daily Weekly Monthly Yearly Custom
  High: Low: Average:
Temperature: 15.7 °C 7.8 °C 10.7 °C
Dew Point: 12.5 °C 7.3 °C 9.5 °C
Humidity: 98% 79% 93%
Wind Speed: 4.7km/h 0km/h 0.2km/h
Wind Gust: 9.7km/h - -
Wind- - East
Pressure: 1023.4 hPa 1021.7 hPa -
Precipitation: 0.2 mm    
Historical Graphs
 
 
Tabular Data for November 9, 2020
Time Temperature Dew Point Pressure Wind Wind Speed Wind Gust Humidity Rainfall Rate (Hourly) solar
00:00 8.4 °C 7.8 °C 1023.0 hPa Calm     96% 0.0 mm 0 W/m2
00:05 8.4 °C 7.8 °C 1023.0 hPa Calm     96% 0.0 mm 0 W/m2
00:10 8.5 °C 7.9 °C 1023.0 hPa Calm     96% 0.0 mm 0 W/m2
00:15 8.5 °C 7.9 °C 1023.0 hPa Calm     96% 0.0 mm 0 W/m2
00:20 8.6 °C 8 °C 1023.0 hPa Calm     96% 0.0 mm 0 W/m2
00:25 8.7 °C 8.3 °C 1023.0 hPa Calm     97% 0.0 mm 0 W/m2
00:30 8.7 °C 8.3 °C 1023.0 hPa Calm     97% 0.0 mm 0 W/m2
00:35 8.8 °C 8.3 °C 1023.0 hPa Calm     97% 0.0 mm 0 W/m2
00:40 8.8 °C 8.3 °C 1023.0 hPa Calm     97% 0.0 mm 0 W/m2
00:45 8.8 °C 8.3 °C 1023.0 hPa Calm     97% 0.0 mm 0 W/m2
00:50 8.8 °C 8.3 °C 1023.0 hPa Calm     97% 0.0 mm 0 W/m2
00:55 8.8 °C 8.3 °C 1023.0 hPa Calm     97% 0.0 mm 0 W/m2
01:00 8.8 °C 8.3 °C 1022.7 hPa Calm     97% 0.0 mm 0 W/m2
01:05 8.8 °C 8.3 °C 1022.7 hPa Calm     97% 0.0 mm 0 W/m2
01:10 8.9 °C 8.4 °C 1022.7 hPa Calm     97% 0.0 mm 0 W/m2
01:15 8.9 °C 8.4 °C 1022.7 hPa Calm     97% 0.0 mm 0 W/m2
01:20 8.9 °C 8.4 °C 1022.7 hPa Calm     97% 0.0 mm 0 W/m2
01:25 8.9 °C 8.3 °C 1022.7 hPa Calm     96% 0.0 mm 0 W/m2
01:30 8.8 °C 8.2 °C 1022.7 hPa Calm     96% 0.0 mm 0 W/m2
01:35 8.8 °C 8.2 °C 1022.7 hPa Calm     96% 0.0 mm 0 W/m2
01:40 8.7 °C 8.1 °C 1022.4 hPa Calm     96% 0.0 mm 0 W/m2
01:45 8.6 °C 8 °C 1022.4 hPa Calm     96% 0.0 mm 0 W/m2
01:50 8.6 °C 8 °C 1022.4 hPa Calm     96% 0.0 mm 0 W/m2
01:55 8.6 °C 8 °C 1022.4 hPa Calm     96% 0.0 mm 0 W/m2
02:00 8.6 °C 8 °C 1022.4 hPa Calm     96% 0.0 mm 0 W/m2
02:05 8.6 °C 8 °C 1022.4 hPa Calm     96% 0.0 mm 0 W/m2
02:10 8.6 °C 8 °C 1022.4 hPa Calm     96% 0.0 mm 0 W/m2
02:15 8.6 °C 8 °C 1022.4 hPa Calm     96% 0.0 mm 0 W/m2
02:20 8.6 °C 8 °C 1022.4 hPa Calm     96% 0.0 mm 0 W/m2
02:25 8.7 °C 8.3 °C 1022.7 hPa NNW 1.4 km/h 3.2 km/h 97% 0.0 mm 0 W/m2
02:30 9 °C 8.5 °C 1022.7 hPa Calm     97% 0.0 mm 0 W/m2
02:35 9.1 °C 8.6 °C 1022.4 hPa Calm   1.6 km/h 97% 0.0 mm 0 W/m2
02:40 9.1 °C 8.6 °C 1022.7 hPa ENE 1.4 km/h 3.2 km/h 97% 0.0 mm 0 W/m2
02:45 8.8 °C 8.3 °C 1022.7 hPa East 3.2 km/h 4.8 km/h 97% 0.0 mm 0 W/m2
02:50 8.6 °C 8 °C 1022.7 hPa Calm   1.6 km/h 96% 0.0 mm 0 W/m2
02:55 8.3 °C 7.7 °C 1022.4 hPa Calm     96% 0.0 mm 0 W/m2
03:00 8.2 °C 7.6 °C 1022.4 hPa Calm     96% 0.0 mm 0 W/m2
03:05 8.1 °C 7.5 °C 1022.4 hPa Calm     96% 0.0 mm 0 W/m2
03:10 8.1 °C 7.5 °C 1022.4 hPa Calm     96% 0.0 mm 0 W/m2
03:15 7.9 °C 7.3 °C 1022.4 hPa Calm     96% 0.0 mm 0 W/m2
03:20 7.9 °C 7.5 °C 1022.4 hPa Calm     97% 0.0 mm 0 W/m2
03:25 7.9 °C 7.3 °C 1022.4 hPa Calm   1.6 km/h 96% 0.0 mm 0 W/m2
03:30 7.9 °C 7.3 °C 1022.4 hPa Calm     96% 0.0 mm 0 W/m2
03:35 7.9 °C 7.5 °C 1022.4 hPa Calm   1.6 km/h 97% 0.0 mm 0 W/m2
03:40 7.9 °C 7.5 °C 1022.4 hPa Calm     97% 0.0 mm 0 W/m2
03:45 8 °C 7.6 °C 1022.4 hPa Calm     97% 0.0 mm 0 W/m2
03:50 8 °C 7.6 °C 1022.4 hPa East 1.4 km/h 1.6 km/h 97% 0.0 mm 0 W/m2
03:55 8.1 °C 7.7 °C 1022.4 hPa Calm     97% 0.0 mm 0 W/m2
04:00 8.1 °C 7.7 °C 1022.4 hPa Calm     97% 0.0 mm 0 W/m2
04:05 8.2 °C 7.8 °C 1022.4 hPa Calm     97% 0.0 mm 0 W/m2
04:10 8.3 °C 7.9 °C 1022.0 hPa Calm   1.6 km/h 97% 0.0 mm 0 W/m2
04:15 8.3 °C 7.9 °C 1022.0 hPa Calm     97% 0.2 mm 0 W/m2
04:20 8.3 °C 7.9 °C 1022.0 hPa East 1.4 km/h 1.6 km/h 97% 0.2 mm 0 W/m2
04:25 8.4 °C 8 °C 1022.0 hPa Calm     97% 0.2 mm 0 W/m2
04:30 8.4 °C 8 °C 1022.0 hPa Calm     97% 0.2 mm 0 W/m2
04:35 8.4 °C 8 °C 1022.0 hPa Calm     97% 0.2 mm 0 W/m2
04:40 8.5 °C 8.1 °C 1022.0 hPa Calm     97% 0.2 mm 0 W/m2
04:45 8.6 °C 8.2 °C 1022.0 hPa Calm     97% 0.2 mm 0 W/m2
04:50 8.7 °C 8.3 °C 1022.0 hPa Calm     97% 0.2 mm 0 W/m2
04:55 8.9 °C 8.4 °C 1022.0 hPa Calm     97% 0.2 mm 0 W/m2
05:00 9.2 °C 8.7 °C 1022.0 hPa Calm     97% 0.2 mm 0 W/m2
05:05 9.3 °C 8.8 °C 1022.4 hPa Calm     97% 0.2 mm 0 W/m2
05:10 9.4 °C 8.9 °C 1022.4 hPa Calm     97% 0.2 mm 0 W/m2
05:15 9.5 °C 9 °C 1022.4 hPa Calm     97% 0.0 mm 0 W/m2
05:20 9.4 °C 8.9 °C 1022.4 hPa Calm     97% 0.0 mm 0 W/m2
05:25 9.3 °C 8.8 °C 1022.4 hPa Calm     97% 0.0 mm 0 W/m2
05:30 9.2 °C 8.7 °C 1022.4 hPa Calm     97% 0.0 mm 0 W/m2
05:35 9.1 °C 8.6 °C 1022.4 hPa Calm     97% 0.0 mm 0 W/m2
05:40 9.1 °C 8.6 °C 1022.4 hPa Calm     97% 0.0 mm 0 W/m2
05:45 9.2 °C 8.7 °C 1022.4 hPa Calm     97% 0.0 mm 0 W/m2
05:50 9.3 °C 8.8 °C 1022.4 hPa Calm     97% 0.0 mm 0 W/m2
05:55 9.3 °C 8.8 °C 1022.4 hPa Calm     97% 0.0 mm 0 W/m2
06:00 9.2 °C 8.7 °C 1022.4 hPa Calm     97% 0.0 mm 0 W/m2
06:05 9.1 °C 8.6 °C 1022.4 hPa Calm     97% 0.0 mm 0 W/m2
06:10 8.9 °C 8.4 °C 1022.4 hPa Calm     97% 0.0 mm 0 W/m2
06:16 8.7 °C 8.3 °C 1022.4 hPa Calm     97% 0.0 mm 0 W/m2
06:21 8.6 °C 8.2 °C 1022.4 hPa Calm     97% 0.0 mm 0 W/m2
06:26 8.5 °C 8.1 °C 1022.4 hPa Calm     97% 0.0 mm 0 W/m2
06:31 8.4 °C 8 °C 1022.4 hPa Calm     97% 0.0 mm 0 W/m2
06:36 8.3 °C 7.9 °C 1022.0 hPa Calm     97% 0.0 mm 0 W/m2
06:41 8.3 °C 7.9 °C 1022.0 hPa Calm     97% 0.0 mm 0 W/m2
06:46 8.3 °C 7.9 °C 1022.0 hPa Calm     97% 0.0 mm 0 W/m2
06:51 8.2 °C 7.8 °C 1022.4 hPa Calm     97% 0.0 mm 0 W/m2
06:56 8.2 °C 7.8 °C 1022.4 hPa Calm     97% 0.0 mm 0 W/m2
07:01 8.1 °C 7.7 °C 1022.4 hPa Calm     97% 0.0 mm 0 W/m2
07:06 8.1 °C 7.7 °C 1022.4 hPa Calm     97% 0.0 mm 0 W/m2
07:11 8.1 °C 7.7 °C 1022.4 hPa Calm     97% 0.0 mm 0 W/m2
07:16 8 °C 7.6 °C 1022.4 hPa Calm     97% 0.0 mm 0 W/m2
07:21 8 °C 7.6 °C 1022.4 hPa Calm     97% 0.0 mm 0 W/m2
07:26 7.9 °C 7.5 °C 1022.4 hPa Calm     97% 0.0 mm 0 W/m2
07:31 7.8 °C 7.4 °C 1022.4 hPa Calm     97% 0.0 mm 0 W/m2
07:36 7.8 °C 7.4 °C 1022.4 hPa Calm     97% 0.0 mm 0 W/m2
07:41 7.8 °C 7.4 °C 1022.4 hPa Calm     97% 0.0 mm 0 W/m2
07:46 7.8 °C 7.4 °C 1022.7 hPa Calm     97% 0.0 mm 5 W/m2
07:51 7.8 °C 7.4 °C 1022.4 hPa Calm     97% 0.0 mm 9 W/m2
07:56 7.9 °C 7.5 °C 1022.7 hPa Calm     97% 0.0 mm 12 W/m2
08:01 7.9 °C 7.5 °C 1022.7 hPa Calm     97% 0.0 mm 18 W/m2
08:06 8.1 °C 7.7 °C 1022.7 hPa Calm   1.6 km/h 97% 0.0 mm 18 W/m2
08:11 8.2 °C 7.8 °C 1022.7 hPa Calm     97% 0.0 mm 23 W/m2
08:16 8.3 °C 7.9 °C 1022.7 hPa Calm   1.6 km/h 97% 0.0 mm 32 W/m2
08:21 8.3 °C 7.9 °C 1022.7 hPa Calm     97% 0.0 mm 35 W/m2
08:26 8.4 °C 8 °C 1022.7 hPa Calm     97% 0.0 mm 30 W/m2
08:31 8.6 °C 8.2 °C 1023.0 hPa Calm     97% 0.0 mm 26 W/m2
08:36 8.7 °C 8.3 °C 1023.0 hPa Calm     97% 0.0 mm 26 W/m2
08:41 8.8 °C 8.3 °C 1023.0 hPa Calm     97% 0.0 mm 33 W/m2
08:46 8.8 °C 8.3 °C 1023.0 hPa Calm     97% 0.0 mm 51 W/m2
08:51 8.9 °C 8.6 °C 1023.0 hPa Calm     98% 0.0 mm 70 W/m2
08:56 8.9 °C 8.4 °C 1023.0 hPa Calm     97% 0.0 mm 86 W/m2
09:01 9.1 °C 8.6 °C 1023.0 hPa Calm     97% 0.0 mm 76 W/m2
09:06 9.3 °C 9 °C 1023.0 hPa Calm     98% 0.0 mm 70 W/m2
09:11 9.4 °C 8.9 °C 1023.0 hPa Calm     97% 0.0 mm 74 W/m2
09:16 9.5 °C 9.2 °C 1023.0 hPa Calm     98% 0.0 mm 72 W/m2
09:21 9.7 °C 9.4 °C 1023.0 hPa Calm     98% 0.0 mm 77 W/m2
09:26 9.7 °C 9.2 °C 1023.0 hPa ENE 3.2 km/h 3.2 km/h 97% 0.0 mm 84 W/m2
09:31 9.8 °C 9.3 °C 1023.0 hPa Calm     97% 0.0 mm 90 W/m2
09:36 9.8 °C 9.3 °C 1023.0 hPa ENE 1.4 km/h 3.2 km/h 97% 0.0 mm 97 W/m2
09:41 9.9 °C 9.6 °C 1023.0 hPa SSE 1.4 km/h 1.6 km/h 98% 0.0 mm 93 W/m2
09:46 9.9 °C 9.6 °C 1023.0 hPa Calm   1.6 km/h 98% 0.0 mm 86 W/m2
09:51 10 °C 9.7 °C 1023.0 hPa Calm     98% 0.0 mm 86 W/m2
09:56 10 °C 9.7 °C 1023.0 hPa ESE 1.4 km/h 3.2 km/h 98% 0.0 mm 84 W/m2
10:01 10 °C 9.7 °C 1023.0 hPa ESE 1.4 km/h 1.6 km/h 98% 0.0 mm 83 W/m2
10:06 10 °C 9.5 °C 1023.0 hPa Calm   1.6 km/h 97% 0.0 mm 86 W/m2
10:11 10.1 °C 9.6 °C 1023.0 hPa Calm     97% 0.0 mm 127 W/m2
10:16 10.1 °C 9.6 °C 1023.0 hPa Calm     97% 0.0 mm 146 W/m2
10:21 10.2 °C 9.9 °C 1023.0 hPa NNW 3.2 km/h 3.2 km/h 98% 0.0 mm 118 W/m2
10:26 10.2 °C 9.7 °C 1023.0 hPa Calm     97% 0.0 mm 128 W/m2
10:31 10.3 °C 9.8 °C 1023.0 hPa Calm   3.2 km/h 97% 0.0 mm 114 W/m2
10:36 10.3 °C 9.8 °C 1023.0 hPa Calm   1.6 km/h 97% 0.0 mm 84 W/m2
10:41 10.3 °C 9.8 °C 1023.0 hPa Calm   1.6 km/h 97% 0.0 mm 76 W/m2
10:46 10.4 °C 9.9 °C 1023.0 hPa Calm     97% 0.0 mm 91 W/m2
10:51 10.4 °C 9.9 °C 1023.0 hPa NE 1.4 km/h 3.2 km/h 97% 0.0 mm 97 W/m2
10:56 10.5 °C 10 °C 1023.0 hPa NE 1.4 km/h 3.2 km/h 97% 0.0 mm 98 W/m2
11:01 10.6 °C 10.1 °C 1023.0 hPa ENE 3.2 km/h 4.8 km/h 97% 0.0 mm 102 W/m2
11:06 10.7 °C 10.2 °C 1023.0 hPa Calm   3.2 km/h 97% 0.0 mm 111 W/m2
11:11 10.7 °C 10.2 °C 1023.0 hPa Calm   4.8 km/h 97% 0.0 mm 113 W/m2
11:16 10.8 °C 10.3 °C 1023.0 hPa Calm   1.6 km/h 97% 0.0 mm 123 W/m2
11:21 10.9 °C 10.3 °C 1023.0 hPa ENE 1.4 km/h 3.2 km/h 96% 0.0 mm 141 W/m2
11:26 11.1 °C 10.5 °C 1023.0 hPa ESE 1.4 km/h 3.2 km/h 96% 0.0 mm 156 W/m2
11:31 11.2 °C 10.6 °C 1023.0 hPa Calm   1.6 km/h 96% 0.0 mm 209 W/m2
11:36 11.4 °C 10.8 °C 1023.0 hPa NNW 1.4 km/h 1.6 km/h 96% 0.0 mm 195 W/m2
11:41 11.7 °C 10.9 °C 1023.0 hPa NNE 1.4 km/h 4.8 km/h 95% 0.0 mm 125 W/m2
11:46 11.8 °C 10.9 °C 1022.7 hPa NE 3.2 km/h 3.2 km/h 94% 0.0 mm 146 W/m2
11:51 12.1 °C 11 °C 1022.7 hPa NNE 1.4 km/h 3.2 km/h 93% 0.0 mm 102 W/m2
11:56 12.2 °C 10.8 °C 1022.7 hPa NE 1.4 km/h 4.8 km/h 91% 0.0 mm 84 W/m2
12:01 12.3 °C 10.7 °C 1022.7 hPa NE 1.4 km/h 4.8 km/h 90% 0.0 mm 49 W/m2
12:06 12.5 °C 10.7 °C 1022.7 hPa Calm   3.2 km/h 89% 0.0 mm 56 W/m2
12:12 12.6 °C 10.8 °C 1022.4 hPa NE 4.7 km/h 4.8 km/h 89% 0.0 mm 53 W/m2
12:17 12.7 °C 10.8 °C 1022.4 hPa Calm   3.2 km/h 88% 0.0 mm 53 W/m2
12:22 12.8 °C 10.7 °C 1022.4 hPa Calm   4.8 km/h 87% 0.0 mm 42 W/m2
12:27 12.9 °C 10.8 °C 1022.4 hPa East 1.4 km/h 4.8 km/h 87% 0.0 mm 58 W/m2
12:32 13.1 °C 10.8 °C 1022.4 hPa ENE 1.4 km/h 9.7 km/h 86% 0.0 mm 39 W/m2
12:37 13.2 °C 10.9 °C 1022.4 hPa North 1.4 km/h 4.8 km/h 86% 0.0 mm 42 W/m2
12:42 13.3 °C 11 °C 1022.4 hPa NE 1.4 km/h 1.6 km/h 86% 0.0 mm 44 W/m2
12:47 13.3 °C 10.8 °C 1022.4 hPa Calm   3.2 km/h 85% 0.0 mm 51 W/m2
12:52 13.3 °C 11 °C 1022.4 hPa Calm   3.2 km/h 86% 0.0 mm 60 W/m2
12:57 13.4 °C 10.9 °C 1022.4 hPa ENE 1.4 km/h 4.8 km/h 85% 0.0 mm 72 W/m2
13:02 13.5 °C 11 °C 1022.0 hPa East 1.4 km/h 3.2 km/h 85% 0.0 mm 90 W/m2
13:07 13.6 °C 11.1 °C 1022.0 hPa East 1.4 km/h 3.2 km/h 85% 0.0 mm 116 W/m2
13:12 13.7 °C 11.2 °C 1022.0 hPa Calm   1.6 km/h 85% 0.0 mm 137 W/m2
13:17 13.8 °C 11.3 °C 1022.0 hPa Calm   3.2 km/h 85% 0.0 mm 130 W/m2
13:22 13.9 °C 11.4 °C 1022.0 hPa East 3.2 km/h 6.4 km/h 85% 0.0 mm 132 W/m2
13:27 14.2 °C 11.5 °C 1022.0 hPa East 1.4 km/h 1.6 km/h 84% 0.0 mm 148 W/m2
13:32 14.4 °C 11.5 °C 1022.0 hPa ENE 3.2 km/h 4.8 km/h 83% 0.0 mm 132 W/m2
13:37 14.6 °C 11.7 °C 1022.0 hPa Calm   1.6 km/h 83% 0.0 mm 134 W/m2
13:42 14.7 °C 11.7 °C 1022.0 hPa Calm   3.2 km/h 82% 0.0 mm 146 W/m2
13:47 14.8 °C 11.8 °C 1022.0 hPa Calm   6.4 km/h 82% 0.0 mm 155 W/m2
13:52 14.9 °C 11.9 °C 1021.7 hPa Calm   1.6 km/h 82% 0.0 mm 165 W/m2
13:57 15 °C 12 °C 1021.7 hPa ESE 1.4 km/h 3.2 km/h 82% 0.0 mm 176 W/m2
14:02 15.2 °C 12 °C 1021.7 hPa ESE 1.4 km/h 4.8 km/h 81% 0.0 mm 172 W/m2
14:07 15.3 °C 12.1 °C 1021.7 hPa NE 1.4 km/h 3.2 km/h 81% 0.0 mm 155 W/m2
14:12 15.3 °C 12.1 °C 1021.7 hPa Calm   4.8 km/h 81% 0.0 mm 144 W/m2
14:17 15.4 °C 12 °C 1021.7 hPa East 1.4 km/h 4.8 km/h 80% 0.0 mm 139 W/m2
14:22 15.4 °C 12.2 °C 1021.7 hPa Calm   1.6 km/h 81% 0.0 mm 130 W/m2
14:27 15.4 °C 12.2 °C 1021.7 hPa ENE 1.4 km/h 4.8 km/h 81% 0.0 mm 130 W/m2
14:32 15.5 °C 12.3 °C 1021.7 hPa Calm   3.2 km/h 81% 0.0 mm 130 W/m2
14:37 15.6 °C 12.2 °C 1021.7 hPa Calm   3.2 km/h 80% 0.0 mm 120 W/m2
14:42 15.6 °C 12.2 °C 1021.7 hPa Calm   1.6 km/h 80% 0.0 mm 116 W/m2
14:47 15.7 °C 12.4 °C 1021.7 hPa East 1.4 km/h 3.2 km/h 81% 0.0 mm 109 W/m2
14:52 15.7 °C 12.3 °C 1021.7 hPa Calm     80% 0.0 mm 102 W/m2
14:57 15.7 °C 12.3 °C 1021.7 hPa East 1.4 km/h 1.6 km/h 80% 0.0 mm 93 W/m2
15:02 15.7 °C 12.1 °C 1021.7 hPa Calm   1.6 km/h 79% 0.0 mm 86 W/m2
15:07 15.7 °C 12.3 °C 1021.7 hPa Calm   1.6 km/h 80% 0.0 mm 76 W/m2
15:12 15.7 °C 12.3 °C 1021.7 hPa Calm   1.6 km/h 80% 0.0 mm 74 W/m2
15:17 15.7 °C 12.1 °C 1021.7 hPa Calm     79% 0.0 mm 69 W/m2
15:22 15.6 °C 12.2 °C 1021.7 hPa Calm     80% 0.0 mm 67 W/m2
15:27 15.6 °C 12.4 °C 1021.7 hPa Calm     81% 0.0 mm 63 W/m2
15:32 15.6 °C 12.4 °C 1021.7 hPa Calm     81% 0.0 mm 58 W/m2
15:37 15.6 °C 12.5 °C 1021.7 hPa Calm     82% 0.0 mm 54 W/m2
15:42 15.4 °C 12.3 °C 1021.7 hPa Calm     82% 0.0 mm 47 W/m2
15:47 15.4 °C 12.3 °C 1021.7 hPa Calm     82% 0.0 mm 42 W/m2
15:52 15.3 °C 12.2 °C 1021.7 hPa Calm     82% 0.0 mm 37 W/m2
15:57 15.3 °C 12.4 °C 1021.7 hPa Calm     83% 0.0 mm 33 W/m2
16:02 15.3 °C 12.4 °C 1021.7 hPa Calm     83% 0.0 mm 30 W/m2
16:07 15.2 °C 12.5 °C 1021.7 hPa Calm     84% 0.0 mm 28 W/m2
16:12 15.1 °C 12.4 °C 1021.7 hPa Calm     84% 0.0 mm 25 W/m2
16:17 15.1 °C 12.4 °C 1021.7 hPa Calm     84% 0.0 mm 21 W/m2
16:22 14.9 °C 12.2 °C 1021.7 hPa Calm     84% 0.0 mm 18 W/m2
16:27 14.8 °C 12.3 °C 1021.7 hPa Calm     85% 0.0 mm 14 W/m2
16:32 14.8 °C 12.3 °C 1022.0 hPa Calm     85% 0.0 mm 12 W/m2
16:37 14.7 °C 12.2 °C 1022.0 hPa Calm     85% 0.0 mm 12 W/m2
16:42 14.6 °C 12.1 °C 1022.0 hPa Calm     85% 0.0 mm 11 W/m2
16:47 14.5 °C 12 °C 1021.7 hPa Calm     85% 0.0 mm 9 W/m2
16:52 14.4 °C 12.1 °C 1021.7 hPa Calm     86% 0.0 mm 5 W/m2
16:57 14.3 °C 12 °C 1021.7 hPa Calm     86% 0.0 mm 0 W/m2
17:02 14.2 °C 11.9 °C 1022.0 hPa Calm     86% 0.0 mm 0 W/m2
17:07 14.2 °C 11.9 °C 1022.0 hPa Calm     86% 0.0 mm 0 W/m2
17:13 14.1 °C 12 °C 1022.0 hPa Calm     87% 0.0 mm 0 W/m2
17:16 14 °C 11.9 °C 1022.0 hPa Calm     87% 0.0 mm 0 W/m2
17:21 13.9 °C 11.8 °C 1022.0 hPa Calm     87% 0.0 mm 0 W/m2
17:26 13.8 °C 11.7 °C 1022.0 hPa Calm     87% 0.0 mm 0 W/m2
17:31 13.7 °C 11.7 °C 1022.0 hPa Calm     88% 0.0 mm 0 W/m2
17:36 13.7 °C 11.7 °C 1022.0 hPa Calm     88% 0.0 mm 0 W/m2
17:41 13.6 °C 11.6 °C 1022.0 hPa Calm     88% 0.0 mm 0 W/m2
17:46 13.5 °C 11.6 °C 1022.0 hPa Calm     88% 0.0 mm 0 W/m2
17:51 13.4 °C 11.6 °C 1022.4 hPa Calm     89% 0.0 mm 0 W/m2
17:56 13.3 °C 11.5 °C 1022.4 hPa Calm     89% 0.0 mm 0 W/m2
18:02 13.3 °C 11.5 °C 1022.4 hPa Calm     89% 0.0 mm 0 W/m2
18:07 13.2 °C 11.4 °C 1022.4 hPa Calm     89% 0.0 mm 0 W/m2
18:12 13.2 °C 11.6 °C 1022.4 hPa Calm     90% 0.0 mm 0 W/m2
18:17 13.1 °C 11.5 °C 1022.4 hPa Calm     90% 0.0 mm 0 W/m2
18:22 13.1 °C 11.5 °C 1022.4 hPa Calm     90% 0.0 mm 0 W/m2
18:27 12.9 °C 11.3 °C 1022.4 hPa Calm     90% 0.0 mm 0 W/m2
18:32 12.9 °C 11.3 °C 1022.4 hPa Calm     90% 0.0 mm 0 W/m2
18:37 12.8 °C 11.2 °C 1022.4 hPa Calm     90% 0.0 mm 0 W/m2
18:42 12.7 °C 11.1 °C 1022.4 hPa Calm     90% 0.0 mm 0 W/m2
18:47 12.6 °C 11 °C 1022.4 hPa Calm     90% 0.0 mm 0 W/m2
18:52 12.4 °C 10.8 °C 1022.4 hPa Calm   1.6 km/h 90% 0.0 mm 0 W/m2
18:57 12.3 °C 10.7 °C 1022.4 hPa Calm   1.6 km/h 90% 0.0 mm 0 W/m2
19:02 12.1 °C 10.7 °C 1022.4 hPa Calm     91% 0.0 mm 0 W/m2
19:07 12 °C 10.6 °C 1022.4 hPa Calm     91% 0.0 mm 0 W/m2
19:12 11.8 °C 10.4 °C 1022.4 hPa Calm     91% 0.0 mm 0 W/m2
19:17 11.7 °C 10.3 °C 1022.7 hPa Calm     91% 0.0 mm 0 W/m2
19:22 11.6 °C 10.3 °C 1022.7 hPa Calm     92% 0.0 mm 0 W/m2
19:27 11.5 °C 10.2 °C 1022.7 hPa Calm     92% 0.0 mm 0 W/m2
19:32 11.4 °C 10.1 °C 1022.7 hPa Calm     92% 0.0 mm 0 W/m2
19:37 11.3 °C 10.2 °C 1022.7 hPa Calm     93% 0.0 mm 0 W/m2
19:42 11.3 °C 10.2 °C 1022.7 hPa Calm     93% 0.0 mm 0 W/m2
19:47 11.2 °C 10.1 °C 1022.7 hPa Calm     93% 0.0 mm 0 W/m2
19:52 11 °C 9.9 °C 1022.7 hPa Calm     93% 0.0 mm 0 W/m2
19:57 11 °C 9.9 °C 1022.7 hPa Calm     93% 0.0 mm 0 W/m2
20:02 11 °C 10.1 °C 1022.7 hPa Calm     94% 0.0 mm 0 W/m2
20:07 10.9 °C 10 °C 1022.7 hPa Calm     94% 0.0 mm 0 W/m2
20:12 10.8 °C 9.9 °C 1022.7 hPa Calm     94% 0.0 mm 0 W/m2
20:17 10.7 °C 9.8 °C 1022.7 hPa Calm     94% 0.0 mm 0 W/m2
20:22 10.6 °C 9.7 °C 1022.7 hPa Calm     94% 0.0 mm 0 W/m2
20:27 10.5 °C 9.6 °C 1023.0 hPa Calm     94% 0.0 mm 0 W/m2
20:32 10.4 °C 9.5 °C 1022.7 hPa Calm     94% 0.0 mm 0 W/m2
20:37 10.4 °C 9.6 °C 1022.7 hPa Calm     95% 0.0 mm 0 W/m2
20:42 10.4 °C 9.6 °C 1023.0 hPa Calm     95% 0.0 mm 0 W/m2
20:47 10.3 °C 9.5 °C 1023.0 hPa Calm     95% 0.0 mm 0 W/m2
20:52 10.2 °C 9.3 °C 1023.0 hPa Calm     94% 0.0 mm 0 W/m2
20:57 10.1 °C 9.2 °C 1023.0 hPa Calm     94% 0.0 mm 0 W/m2
21:02 10.1 °C 9.3 °C 1022.7 hPa Calm     95% 0.0 mm 0 W/m2
21:07 10.1 °C 9.3 °C 1023.0 hPa Calm     95% 0.0 mm 0 W/m2
21:12 9.9 °C 9 °C 1022.7 hPa Calm     94% 0.0 mm 0 W/m2
21:17 9.8 °C 8.9 °C 1022.7 hPa Calm     94% 0.0 mm 0 W/m2
21:22 9.7 °C 8.9 °C 1022.7 hPa Calm     95% 0.0 mm 0 W/m2
21:27 9.6 °C 8.8 °C 1023.0 hPa Calm     95% 0.0 mm 0 W/m2
21:32 9.6 °C 8.8 °C 1022.7 hPa Calm     95% 0.0 mm 0 W/m2
21:37 9.6 °C 8.8 °C 1023.0 hPa Calm     95% 0.0 mm 0 W/m2
21:42 9.5 °C 8.7 °C 1023.0 hPa Calm     95% 0.0 mm 0 W/m2
21:47 9.4 °C 8.6 °C 1023.0 hPa Calm     95% 0.0 mm 0 W/m2
21:52 9.3 °C 8.5 °C 1023.0 hPa Calm     95% 0.0 mm 0 W/m2
21:57 9.2 °C 8.4 °C 1023.0 hPa Calm     95% 0.0 mm 0 W/m2
22:02 9.1 °C 8.3 °C 1023.4 hPa Calm     95% 0.0 mm 0 W/m2
22:07 9 °C 8.2 °C 1023.4 hPa Calm     95% 0.0 mm 0 W/m2
22:12 8.9 °C 8.1 °C 1023.4 hPa Calm     95% 0.0 mm 0 W/m2
22:17 8.9 °C 8.1 °C 1023.0 hPa Calm     95% 0.0 mm 0 W/m2
22:22 8.9 °C 8.1 °C 1023.4 hPa Calm     95% 0.0 mm 0 W/m2
22:27 8.9 °C 8.1 °C 1023.4 hPa Calm     95% 0.0 mm 0 W/m2
22:32 8.8 °C 8 °C 1023.4 hPa Calm     95% 0.0 mm 0 W/m2
22:37 8.7 °C 7.9 °C 1023.4 hPa Calm     95% 0.0 mm 0 W/m2
22:42 8.8 °C 8.2 °C 1023.0 hPa Calm     96% 0.0 mm 0 W/m2
22:47 8.8 °C 8.2 °C 1023.0 hPa Calm     96% 0.0 mm 0 W/m2
22:52 8.7 °C 8.1 °C 1023.0 hPa Calm     96% 0.0 mm 0 W/m2
22:57 8.7 °C 8.1 °C 1023.4 hPa Calm     96% 0.0 mm 0 W/m2
23:02 8.7 °C 8.1 °C 1023.4 hPa Calm     96% 0.0 mm 0 W/m2
23:07 8.6 °C 8 °C 1023.4 hPa Calm     96% 0.0 mm 0 W/m2
23:12 8.6 °C 8 °C 1023.4 hPa Calm     96% 0.0 mm 0 W/m2
23:17 8.5 °C 7.9 °C 1023.4 hPa Calm     96% 0.0 mm 0 W/m2
23:22 8.4 °C 7.8 °C 1023.4 hPa Calm     96% 0.0 mm 0 W/m2
23:27 8.3 °C 7.7 °C 1023.4 hPa Calm     96% 0.0 mm 0 W/m2
23:32 8.3 °C 7.7 °C 1023.4 hPa Calm     96% 0.0 mm 0 W/m2
23:37 8.3 °C 7.7 °C 1023.4 hPa Calm     96% 0.0 mm 0 W/m2
23:42 8.2 °C 7.6 °C 1023.4 hPa Calm     96% 0.0 mm 0 W/m2
23:47 8.2 °C 7.6 °C 1023.4 hPa Calm     96% 0.0 mm 0 W/m2
23:52 8.1 °C 7.5 °C 1023.4 hPa Calm     96% 0.0 mm 0 W/m2
23:57 8.1 °C 7.5 °C 1023.4 hPa Calm     96% 0.0 mm 0 W/m2
Juneau County Weather
Compliments of Weather Underground - 2 mb